createdAt,value
2023-04-13T00:02:54.577Z,0
2023-04-13T00:06:19.587Z,0
2023-04-13T00:09:44.789Z,0
2023-04-13T00:13:09.945Z,0
2023-04-13T00:16:35.161Z,0
2023-04-13T00:20:00.319Z,0
2023-04-13T00:23:25.486Z,0
2023-04-13T00:26:50.679Z,0
2023-04-13T00:30:15.883Z,0
2023-04-13T00:33:41.025Z,0
2023-04-13T00:37:06.190Z,0
2023-04-13T00:40:31.362Z,0
2023-04-13T00:43:56.808Z,0
2023-04-13T00:47:21.772Z,0
2023-04-13T00:50:46.867Z,0
2023-04-13T00:54:12.035Z,0
2023-04-13T00:57:37.196Z,0
2023-04-13T01:01:02.429Z,0
2023-04-13T01:04:27.645Z,0
2023-04-13T01:07:52.749Z,0
2023-04-13T01:11:17.928Z,0
2023-04-13T01:14:43.104Z,0
2023-04-13T01:18:08.315Z,0
2023-04-13T01:21:33.457Z,0
2023-04-13T01:24:58.635Z,0
2023-04-13T01:28:23.822Z,0
2023-04-13T01:31:49.077Z,0
2023-04-13T01:35:14.197Z,0
2023-04-13T01:38:39.345Z,0
2023-04-13T01:42:04.534Z,0
2023-04-13T01:45:29.728Z,0
2023-04-13T01:48:54.898Z,0
2023-04-13T01:52:20.135Z,0
2023-04-13T01:55:45.285Z,0
2023-04-13T01:59:10.467Z,0
2023-04-13T02:02:35.761Z,0
2023-04-13T02:06:00.814Z,0
2023-04-13T02:09:26.030Z,0
2023-04-13T02:12:51.207Z,0
2023-04-13T02:16:16.397Z,0
2023-04-13T02:19:41.556Z,0
2023-04-13T02:23:06.726Z,0
2023-04-13T02:26:31.999Z,0
2023-04-13T02:29:57.160Z,0
2023-04-13T02:33:22.364Z,0
2023-04-13T02:36:47.550Z,0
2023-04-13T02:40:12.726Z,0
2023-04-13T02:43:37.963Z,0
2023-04-13T02:47:03.064Z,0
2023-04-13T02:50:28.272Z,0
2023-04-13T02:53:54.499Z,0
2023-04-13T02:57:18.633Z,0
2023-04-13T03:00:43.827Z,0
2023-04-13T03:04:08.997Z,0
2023-04-13T03:07:34.161Z,0
2023-04-13T03:10:59.340Z,0
2023-04-13T03:14:24.517Z,0
2023-04-13T03:17:49.731Z,0
2023-04-13T03:21:14.892Z,0
2023-04-13T03:24:40.059Z,0
2023-04-13T03:28:05.223Z,0
2023-04-13T03:31:30.413Z,0
2023-04-13T03:34:55.626Z,0
2023-04-13T03:38:20.779Z,0
2023-04-13T03:41:45.960Z,0
2023-04-13T03:45:11.137Z,0
2023-04-13T03:48:36.320Z,0
2023-04-13T03:52:01.558Z,0
2023-04-13T03:55:26.664Z,0
2023-04-13T03:58:51.834Z,0
2023-04-13T04:02:17.110Z,0
2023-04-13T04:05:42.204Z,0
2023-04-13T04:09:07.395Z,1
2023-04-13T04:12:32.531Z,1
2023-04-13T04:15:57.731Z,1
2023-04-13T04:19:22.837Z,2
2023-04-13T04:22:48.044Z,2
2023-04-13T04:26:13.247Z,3
2023-04-13T04:29:38.385Z,3
2023-04-13T04:33:03.654Z,5
2023-04-13T04:36:28.775Z,5
2023-04-13T04:39:53.954Z,7
2023-04-13T04:43:19.146Z,7
2023-04-13T04:46:44.370Z,9
2023-04-13T04:50:09.652Z,12
2023-04-13T04:53:34.798Z,12
2023-04-13T04:56:59.949Z,21
2023-04-13T05:00:25.143Z,23
2023-04-13T05:03:50.264Z,21
2023-04-13T05:07:15.426Z,27
2023-04-13T05:10:40.611Z,29
2023-04-13T05:14:05.780Z,31
2023-04-13T05:17:31.007Z,30
2023-04-13T05:20:56.152Z,32
2023-04-13T05:24:21.299Z,41
2023-04-13T05:27:46.507Z,48
2023-04-13T05:31:11.663Z,53
2023-04-13T05:34:36.984Z,53
2023-04-13T05:38:02.052Z,63
2023-04-13T05:41:27.176Z,73
2023-04-13T05:44:52.357Z,80
2023-04-13T05:48:19.585Z,88
2023-04-13T05:51:46.033Z,84
2023-04-13T05:55:11.158Z,83
2023-04-13T05:58:36.332Z,90
2023-04-13T06:02:01.609Z,102
2023-04-13T06:05:26.753Z,98
2023-04-13T06:08:51.930Z,91
2023-04-13T06:12:17.129Z,90
2023-04-13T06:15:42.333Z,91
2023-04-13T06:19:07.519Z,98
2023-04-13T06:22:32.709Z,103
2023-04-13T06:25:57.936Z,87
2023-04-13T06:29:23.065Z,88
2023-04-13T06:32:48.267Z,156
2023-04-13T06:36:13.416Z,224
2023-04-13T06:39:38.579Z,300
2023-04-13T06:43:03.779Z,238
2023-04-13T06:46:28.967Z,185
2023-04-13T06:49:54.145Z,196
2023-04-13T06:53:19.303Z,181
2023-04-13T06:56:44.509Z,207
2023-04-13T07:00:15.695Z,297
2023-04-13T07:03:34.965Z,320
2023-04-13T07:07:00.044Z,356
2023-04-13T07:10:25.241Z,380
2023-04-13T07:13:50.407Z,528
2023-04-13T07:17:15.637Z,496
2023-04-13T07:20:40.781Z,352
2023-04-13T07:24:05.970Z,385
2023-04-13T07:27:31.142Z,572
2023-04-13T07:30:56.366Z,427
2023-04-13T07:34:21.885Z,524
2023-04-13T07:37:47.026Z,497
2023-04-13T07:41:12.220Z,276
2023-04-13T07:44:37.417Z,351
2023-04-13T07:48:02.618Z,493
2023-04-13T07:51:27.823Z,379
2023-04-13T07:54:52.974Z,583
2023-04-13T07:58:18.209Z,417
2023-04-13T08:01:43.431Z,295
2023-04-13T08:05:08.744Z,274
2023-04-13T08:08:33.887Z,359
2023-04-13T08:11:59.001Z,382
2023-04-13T08:15:24.176Z,565
2023-04-13T08:18:49.384Z,545
2023-04-13T08:22:14.551Z,480
2023-04-13T08:25:39.837Z,498
2023-04-13T08:29:05.499Z,330
2023-04-13T08:32:30.679Z,377
2023-04-13T08:35:55.853Z,328
2023-04-13T08:39:21.010Z,357
2023-04-13T08:42:46.211Z,352
2023-04-13T08:46:11.424Z,309
2023-04-13T08:49:36.522Z,519
2023-04-13T08:53:01.732Z,412
2023-04-13T08:56:38.035Z,350
2023-04-13T08:59:52.480Z,292
2023-04-13T09:03:17.406Z,338
2023-04-13T09:06:42.434Z,253
2023-04-13T09:10:07.622Z,296
2023-04-13T09:13:32.806Z,311
2023-04-13T09:16:58.019Z,225
2023-04-13T09:20:23.127Z,124
2023-04-13T09:23:48.293Z,167
2023-04-13T09:27:13.444Z,300
2023-04-13T09:30:38.686Z,252
2023-04-13T09:34:03.975Z,289
2023-04-13T09:37:29.164Z,396
2023-04-13T09:40:54.535Z,347
2023-04-13T09:44:19.565Z,282
2023-04-13T09:47:44.784Z,276
2023-04-13T09:51:10.031Z,208
2023-04-13T09:54:35.281Z,245
2023-04-13T09:58:00.501Z,264
2023-04-13T10:01:25.809Z,392
2023-04-13T10:04:50.900Z,291
2023-04-13T10:08:19.725Z,238
2023-04-13T10:11:41.321Z,249
2023-04-13T10:15:06.534Z,214
2023-04-13T10:18:31.795Z,316
2023-04-13T10:21:56.964Z,361
2023-04-13T10:25:32.579Z,264
2023-04-13T10:28:47.346Z,305
2023-04-13T10:32:12.599Z,301
2023-04-13T10:35:39.006Z,268
2023-04-13T10:39:03.012Z,255
2023-04-13T10:42:28.232Z,268
2023-04-13T10:45:53.410Z,347
2023-04-13T10:49:18.654Z,319
2023-04-13T10:52:43.900Z,287
2023-04-13T10:56:09.148Z,333
2023-04-13T10:59:41.850Z,523
2023-04-13T11:02:59.665Z,446
2023-04-13T11:06:24.822Z,609
2023-04-13T11:09:50.063Z,757
2023-04-13T11:13:15.269Z,965
2023-04-13T11:16:40.571Z,1325
2023-04-13T11:20:05.767Z,671
2023-04-13T11:23:31.011Z,496
2023-04-13T11:26:56.227Z,448
2023-04-13T11:30:21.444Z,371
2023-04-13T11:33:46.733Z,324
2023-04-13T11:37:11.912Z,417
2023-04-13T11:40:37.207Z,503
2023-04-13T11:44:02.398Z,310
2023-04-13T11:47:27.752Z,419
2023-04-13T11:50:52.984Z,503
2023-04-13T11:54:18.242Z,465
2023-04-13T11:57:43.519Z,740
2023-04-13T12:01:13.724Z,574
2023-04-13T12:04:34.085Z,1304
2023-04-13T12:07:59.515Z,528
2023-04-13T12:11:41.073Z,413
2023-04-13T12:14:58.034Z,454
2023-04-13T12:18:15.915Z,1056
2023-04-13T12:21:40.258Z,1027
2023-04-13T12:25:06.529Z,593
2023-04-13T12:28:31.700Z,571
2023-04-13T12:31:55.809Z,1066
2023-04-13T12:35:21.034Z,487
2023-04-13T12:38:46.310Z,523
2023-04-13T12:42:11.674Z,526
2023-04-13T12:45:36.913Z,580
2023-04-13T12:49:02.495Z,614
2023-04-13T12:52:27.473Z,556
2023-04-13T12:55:52.735Z,653
2023-04-13T12:59:18.176Z,687
2023-04-13T13:02:43.501Z,485
2023-04-13T13:06:08.678Z,394
2023-04-13T13:09:33.964Z,427
2023-04-13T13:12:59.227Z,460
2023-04-13T13:16:24.547Z,591
2023-04-13T13:19:50.224Z,743
2023-04-13T13:23:15.583Z,559
2023-04-13T13:30:06.261Z,455
2023-04-13T13:33:31.537Z,342
2023-04-13T13:36:56.808Z,431
2023-04-13T13:40:22.118Z,369
2023-04-13T13:43:47.414Z,276
2023-04-13T13:47:12.686Z,304
2023-04-13T13:50:37.982Z,369
2023-04-13T13:54:03.227Z,468
2023-04-13T13:57:28.464Z,440
2023-04-13T14:00:53.732Z,416
2023-04-13T14:04:19.077Z,427
2023-04-13T14:07:44.349Z,421
2023-04-13T14:11:09.564Z,429
2023-04-13T14:14:34.862Z,431
2023-04-13T14:21:25.441Z,459
2023-04-13T14:24:50.771Z,435
2023-04-13T14:28:15.990Z,452
2023-04-13T14:31:41.725Z,431
2023-04-13T14:35:06.997Z,393
2023-04-13T14:38:32.247Z,387
2023-04-13T14:41:57.504Z,380
2023-04-13T14:45:22.767Z,349
2023-04-13T14:48:47.988Z,344
2023-04-13T14:52:13.315Z,368
2023-04-13T14:55:38.660Z,358
2023-04-13T14:59:04.041Z,330
2023-04-13T15:02:29.393Z,284
2023-04-13T15:38:43.287Z,76
2023-04-13T15:42:08.602Z,302
2023-04-13T15:45:34.057Z,258
2023-04-13T15:48:59.795Z,249
2023-04-13T15:52:24.793Z,228
2023-04-13T15:55:50.199Z,202
2023-04-13T15:59:15.528Z,196
2023-04-13T16:02:41.066Z,191
2023-04-13T16:06:06.351Z,186
2023-04-13T16:09:31.713Z,189
2023-04-13T16:12:57.119Z,188
2023-04-13T16:16:22.509Z,194
2023-04-13T16:19:47.895Z,195
2023-04-13T16:23:13.265Z,191
2023-04-13T16:26:38.655Z,179
2023-04-13T16:30:04.103Z,169
2023-04-13T16:33:29.428Z,159
2023-04-13T16:36:54.808Z,153
2023-04-13T16:40:20.182Z,138
2023-04-13T16:43:45.572Z,134
2023-04-13T16:47:11.004Z,137
2023-04-13T16:50:36.376Z,135
2023-04-13T16:54:01.842Z,103
2023-04-13T16:57:27.233Z,71
2023-04-13T17:00:52.704Z,47
2023-04-13T17:04:18.101Z,37
2023-04-13T17:07:43.376Z,31
2023-04-13T17:11:08.734Z,29
2023-04-13T17:14:34.108Z,31
2023-04-13T17:17:59.528Z,30
2023-04-13T17:21:24.896Z,28
2023-04-13T17:24:50.301Z,24
2023-04-13T17:28:15.655Z,24
2023-04-13T17:31:41.039Z,22
2023-04-13T17:35:06.445Z,19
2023-04-13T17:38:31.812Z,17
2023-04-13T17:41:57.161Z,14
2023-04-13T17:45:22.533Z,11
2023-04-13T17:48:47.930Z,8
2023-04-13T17:52:13.299Z,5
2023-04-13T17:55:38.667Z,3
2023-04-13T17:59:03.999Z,3
2023-04-13T18:02:29.392Z,2
2023-04-13T18:05:54.665Z,1
2023-04-13T18:09:20.022Z,1
2023-04-13T18:12:45.443Z,1
2023-04-13T18:16:12.607Z,0
2023-04-13T18:19:36.099Z,0
2023-04-13T18:23:01.462Z,1
2023-04-13T18:26:26.797Z,0
2023-04-13T18:29:52.166Z,0
2023-04-13T18:33:17.497Z,0
2023-04-13T18:36:42.856Z,0
2023-04-13T18:40:08.215Z,0
2023-04-13T18:43:33.579Z,0
2023-04-13T18:46:59.002Z,0
2023-04-13T18:50:24.305Z,0
2023-04-13T18:53:49.666Z,0
2023-04-13T18:57:15.001Z,0
2023-04-13T19:00:41.310Z,0
2023-04-13T19:04:06.867Z,0
2023-04-13T19:07:32.044Z,0
2023-04-13T19:10:57.358Z,0
2023-04-13T19:14:22.686Z,0
2023-04-13T19:17:48.085Z,0
2023-04-13T19:21:13.393Z,0
2023-04-13T19:24:38.711Z,0
2023-04-13T19:28:04.093Z,0
2023-04-13T19:31:29.435Z,0
2023-04-13T19:34:54.774Z,0
2023-04-13T19:38:20.159Z,0
2023-04-13T19:41:45.560Z,0
2023-04-13T19:45:10.922Z,0
2023-04-13T19:48:36.299Z,0
2023-04-13T19:52:01.694Z,0
2023-04-13T19:55:27.077Z,0
2023-04-13T19:58:52.441Z,0
2023-04-13T20:02:17.871Z,0
2023-04-13T20:05:43.172Z,0
2023-04-13T20:09:08.531Z,0
2023-04-13T20:12:33.964Z,0
2023-04-13T20:15:59.331Z,0
2023-04-13T20:19:24.674Z,0
2023-04-13T20:22:50.081Z,0
2023-04-13T20:26:15.451Z,0
2023-04-13T20:29:40.835Z,0
2023-04-13T20:33:07.200Z,0
2023-04-13T20:36:31.576Z,0
2023-04-13T20:39:56.977Z,0
2023-04-13T20:43:22.359Z,0
2023-04-13T20:46:47.721Z,0
2023-04-13T20:50:13.082Z,0
2023-04-13T20:53:38.441Z,0
2023-04-13T20:57:03.823Z,0
2023-04-13T21:00:29.181Z,0
2023-04-13T21:03:54.602Z,0
2023-04-13T21:07:19.915Z,0
2023-04-13T21:10:45.276Z,0
2023-04-13T21:14:10.600Z,0
2023-04-13T21:17:36.037Z,0
2023-04-13T21:21:01.406Z,0
2023-04-13T21:24:26.697Z,0
2023-04-13T21:27:52.012Z,0
2023-04-13T21:31:17.397Z,0
2023-04-13T21:34:42.756Z,0
2023-04-13T21:38:08.132Z,0
2023-04-13T21:41:33.438Z,0
2023-04-13T21:44:58.838Z,0
2023-04-13T21:48:24.188Z,0
2023-04-13T21:51:49.551Z,0
2023-04-13T21:55:14.916Z,0
2023-04-13T21:58:40.250Z,0
2023-04-13T22:02:05.635Z,0
2023-04-13T22:05:30.972Z,0
2023-04-13T22:08:56.304Z,0
2023-04-13T22:12:21.671Z,0
2023-04-13T22:15:46.980Z,0
2023-04-13T22:19:12.277Z,0
2023-04-13T22:22:37.611Z,0
2023-04-13T22:26:02.936Z,0
2023-04-13T22:29:28.299Z,0
2023-04-13T22:32:53.621Z,0
2023-04-13T22:36:18.917Z,0
2023-04-13T22:39:44.274Z,0
2023-04-13T22:43:09.587Z,0
2023-04-13T22:46:34.998Z,0
2023-04-13T22:50:00.280Z,0
2023-04-13T22:53:25.552Z,0
2023-04-13T22:56:50.844Z,0
2023-04-13T23:00:16.140Z,0
2023-04-13T23:03:41.544Z,0
2023-04-13T23:07:06.790Z,0
2023-04-13T23:10:32.075Z,0
2023-04-13T23:13:57.395Z,0
2023-04-13T23:17:22.719Z,0
2023-04-13T23:20:48.045Z,0
2023-04-13T23:24:13.318Z,0
2023-04-13T23:27:38.661Z,0
2023-04-13T23:31:03.999Z,0
2023-04-13T23:34:29.333Z,0
2023-04-13T23:37:54.677Z,0
2023-04-13T23:41:19.993Z,0
2023-04-13T23:44:45.289Z,0
2023-04-13T23:48:10.615Z,0
2023-04-13T23:51:35.953Z,0
2023-04-13T23:55:01.404Z,0
2023-04-13T23:58:26.659Z,0
